Terminal Aerodrome Forecast
Issued by NWS Wilmington, OH

Current Version | Previous Version | Text Only | Print | Product List | Glossary Off
Versions: 1 2 3 4 5 6 7 8 9 10 11 12 13 14 15 16 17 18 19 20

352
FTUS41 KILN 221700 AAD
TAFCMH
TAF AMD
KCMH 221700Z 2217/2312 23007KT P6SM SCT080 BKN150
      TEMPO 2217/2218 -RA BKN080
     FM230100 24005KT P6SM SCT250=

USA.gov is the U.S. government's official web portal to all federal, state and local government web resources and services.